createdAt,value
2019-05-16T00:00:15.165Z,99.90
2019-05-16T00:02:43.690Z,99.90
2019-05-16T00:05:12.267Z,99.90
2019-05-16T00:07:40.728Z,99.90
2019-05-16T00:10:11.355Z,99.90
2019-05-16T00:12:40.145Z,99.90
2019-05-16T00:15:09.386Z,99.90
2019-05-16T00:17:38.644Z,99.90
2019-05-16T00:20:09.563Z,99.90
2019-05-16T00:22:39.296Z,99.90
2019-05-16T00:25:09.520Z,99.90
2019-05-16T00:27:38.602Z,99.90
2019-05-16T00:30:09.053Z,99.90
2019-05-16T00:32:39.182Z,99.90
2019-05-16T00:35:09.475Z,99.90
2019-05-16T00:37:39.010Z,99.90
2019-05-16T00:40:08.600Z,99.90
2019-05-16T00:42:39.032Z,99.90
2019-05-16T00:45:09.302Z,99.90
2019-05-16T00:47:38.955Z,99.90
2019-05-16T00:50:08.910Z,99.90
2019-05-16T00:52:39.523Z,99.90
2019-05-16T00:55:08.672Z,99.90
2019-05-16T00:57:38.864Z,99.90
2019-05-16T01:00:09.987Z,99.90
2019-05-16T01:02:38.594Z,99.90
2019-05-16T01:05:08.533Z,99.90
2019-05-16T01:07:39.170Z,99.90
2019-05-16T01:10:09.362Z,99.90
2019-05-16T01:12:39.156Z,99.90
2019-05-16T01:15:08.503Z,99.90
2019-05-16T01:17:39.100Z,99.90
2019-05-16T01:20:08.529Z,99.90
2019-05-16T01:22:38.586Z,99.90
2019-05-16T01:25:09.300Z,99.90
2019-05-16T01:27:38.542Z,99.90
2019-05-16T01:30:09.379Z,99.90
2019-05-16T01:32:39.284Z,99.90
2019-05-16T01:35:08.597Z,99.90
2019-05-16T01:37:38.460Z,99.90
2019-05-16T01:40:08.523Z,99.90
2019-05-16T01:42:38.592Z,99.90
2019-05-16T01:45:08.724Z,99.90
2019-05-16T01:47:39.307Z,99.90
2019-05-16T01:50:08.962Z,99.90
2019-05-16T01:52:38.363Z,99.90
2019-05-16T01:55:08.521Z,99.90
2019-05-16T01:57:39.192Z,99.90
2019-05-16T02:00:08.799Z,99.90
2019-05-16T02:02:38.522Z,99.90
2019-05-16T02:05:08.727Z,99.90
2019-05-16T02:07:38.748Z,99.90
2019-05-16T02:10:09.070Z,99.90
2019-05-16T02:12:38.529Z,99.90
2019-05-16T02:15:08.006Z,99.90
2019-05-16T02:17:38.488Z,99.90
2019-05-16T02:20:08.620Z,99.90
2019-05-16T02:22:38.895Z,99.90
2019-05-16T02:25:08.739Z,99.90
2019-05-16T02:27:38.153Z,99.90
2019-05-16T02:30:12.386Z,99.90
2019-05-16T02:32:41.674Z,99.90
2019-05-16T02:35:11.832Z,99.90
2019-05-16T02:37:42.200Z,99.90
2019-05-16T02:40:12.298Z,99.90
2019-05-16T02:42:42.153Z,99.90
2019-05-16T02:45:11.472Z,99.90
2019-05-16T02:47:42.626Z,99.90
2019-05-16T02:50:12.464Z,99.90
2019-05-16T02:52:41.666Z,99.90
2019-05-16T02:55:12.222Z,99.90
2019-05-16T02:57:41.713Z,99.90
2019-05-16T03:00:12.585Z,99.90
2019-05-16T03:02:42.082Z,99.90
2019-05-16T03:05:12.314Z,99.90
2019-05-16T03:07:46.851Z,99.90
2019-05-16T03:10:13.885Z,99.90
2019-05-16T03:12:43.820Z,99.90
2019-05-16T03:15:12.671Z,99.90
2019-05-16T03:17:43.449Z,99.90
2019-05-16T03:20:13.404Z,99.90
2019-05-16T03:22:42.771Z,99.90
2019-05-16T03:25:11.923Z,99.90
2019-05-16T03:27:41.493Z,99.90
2019-05-16T03:30:15.512Z,99.90
2019-05-16T03:32:44.732Z,99.90
2019-05-16T03:35:15.636Z,99.90
2019-05-16T03:37:51.563Z,99.90
2019-05-16T03:40:14.356Z,99.90
2019-05-16T03:42:42.800Z,99.90
2019-05-16T03:45:11.547Z,99.90
2019-05-16T03:47:42.775Z,99.90
2019-05-16T03:50:11.316Z,99.90
2019-05-16T03:52:43.287Z,99.90
2019-05-16T03:55:11.323Z,99.90
2019-05-16T03:57:41.516Z,99.90
2019-05-16T04:00:12.425Z,99.90
2019-05-16T04:02:42.034Z,99.90
2019-05-16T04:05:11.862Z,99.90
2019-05-16T04:07:41.769Z,99.90
2019-05-16T04:10:11.283Z,99.90
2019-05-16T04:12:42.038Z,99.90
2019-05-16T04:15:11.695Z,99.90
2019-05-16T04:17:41.408Z,99.90
2019-05-16T04:20:11.725Z,99.90
2019-05-16T04:22:41.023Z,99.90
2019-05-16T04:25:11.312Z,99.90
2019-05-16T04:27:41.570Z,99.90
2019-05-16T04:30:11.630Z,99.90
2019-05-16T04:32:42.070Z,99.90
2019-05-16T04:35:11.615Z,99.90
2019-05-16T04:37:42.175Z,99.90
2019-05-16T04:40:12.192Z,99.90
2019-05-16T04:42:41.924Z,99.90
2019-05-16T04:45:12.041Z,99.90
2019-05-16T04:47:41.615Z,99.90
2019-05-16T04:50:11.913Z,99.90
2019-05-16T04:52:41.885Z,99.90
2019-05-16T04:55:12.026Z,99.90
2019-05-16T04:57:42.192Z,99.90
2019-05-16T05:00:11.898Z,99.90
2019-05-16T05:02:41.889Z,99.90
2019-05-16T05:05:12.683Z,99.90
2019-05-16T05:07:41.527Z,99.90
2019-05-16T05:10:11.465Z,99.90
2019-05-16T05:12:41.017Z,99.90
2019-05-16T05:15:11.461Z,99.90
2019-05-16T05:17:41.232Z,99.90
2019-05-16T05:20:11.070Z,99.90
2019-05-16T05:22:40.107Z,99.90
2019-05-16T05:25:10.895Z,99.90
2019-05-16T05:27:41.333Z,99.90
2019-05-16T05:30:11.807Z,99.90
2019-05-16T05:32:41.377Z,99.90
2019-05-16T05:35:10.786Z,99.90
2019-05-16T05:37:41.024Z,99.90
2019-05-16T05:40:10.984Z,99.90
2019-05-16T05:42:40.591Z,99.90
2019-05-16T05:45:11.140Z,99.90
2019-05-16T05:47:40.465Z,99.90
2019-05-16T05:50:11.099Z,99.90
2019-05-16T05:52:41.138Z,99.90
2019-05-16T05:55:10.641Z,99.90
2019-05-16T05:57:40.394Z,99.90
2019-05-16T06:00:10.404Z,99.90
2019-05-16T06:02:40.244Z,99.90
2019-05-16T06:05:10.630Z,99.90
2019-05-16T06:07:40.394Z,99.90
2019-05-16T06:10:10.647Z,99.90
2019-05-16T06:12:40.793Z,99.90
2019-05-16T06:15:12.869Z,99.90
2019-05-16T06:17:40.564Z,99.90
2019-05-16T06:20:14.688Z,99.90
2019-05-16T06:22:40.722Z,99.90
2019-05-16T06:25:13.409Z,99.90
2019-05-16T06:27:40.636Z,99.90
2019-05-16T06:30:11.318Z,99.90
2019-05-16T06:32:40.261Z,99.90
2019-05-16T06:35:09.893Z,99.90
2019-05-16T06:37:40.648Z,99.90
2019-05-16T06:40:10.992Z,99.90
2019-05-16T06:42:40.262Z,99.90
2019-05-16T06:45:10.302Z,99.90
2019-05-16T06:47:39.633Z,99.90
2019-05-16T06:50:11.403Z,99.90
2019-05-16T06:52:40.931Z,99.90
2019-05-16T06:55:10.407Z,99.90
2019-05-16T06:57:40.907Z,99.90
2019-05-16T07:00:10.973Z,99.90
2019-05-16T07:02:40.946Z,99.90
2019-05-16T07:05:10.341Z,99.90
2019-05-16T07:07:40.466Z,99.90
2019-05-16T07:10:10.346Z,99.90
2019-05-16T07:12:41.395Z,99.90
2019-05-16T07:15:12.173Z,99.90
2019-05-16T07:17:40.050Z,99.90
2019-05-16T07:20:10.474Z,99.90
2019-05-16T07:22:40.707Z,99.90
2019-05-16T07:25:10.780Z,99.90
2019-05-16T07:27:40.142Z,99.90
2019-05-16T07:30:10.735Z,99.90
2019-05-16T07:32:40.472Z,99.90
2019-05-16T07:35:10.590Z,99.90
2019-05-16T07:37:40.013Z,99.90
2019-05-16T07:40:19.149Z,99.90
2019-05-16T07:42:40.366Z,99.90
2019-05-16T07:45:11.202Z,99.90
2019-05-16T07:47:40.331Z,99.90
2019-05-16T07:50:10.441Z,99.90
2019-05-16T07:52:40.150Z,99.90
2019-05-16T07:55:10.905Z,99.90
2019-05-16T07:57:40.029Z,99.90
2019-05-16T08:00:10.060Z,99.90
2019-05-16T08:02:40.265Z,99.90
2019-05-16T08:05:10.296Z,99.90
2019-05-16T08:07:40.812Z,99.90
2019-05-16T08:10:10.819Z,99.90
2019-05-16T08:12:40.771Z,99.90
2019-05-16T08:15:10.947Z,99.90
2019-05-16T08:17:41.361Z,99.90
2019-05-16T08:20:11.009Z,99.90
2019-05-16T08:25:10.823Z,99.90
2019-05-16T08:27:41.451Z,97.50
2019-05-16T08:30:11.027Z,97.50
2019-05-16T08:32:42.019Z,95.70
2019-05-16T08:35:11.185Z,92.60
2019-05-16T08:40:11.619Z,92.60
2019-05-16T08:42:41.560Z,91.40
2019-05-16T08:47:42.542Z,91.70
2019-05-16T08:50:06.251Z,93.30
2019-05-16T08:50:06.462Z,99.90
2019-05-16T08:50:14.479Z,91.70
2019-05-16T08:52:43.520Z,92.70
2019-05-16T08:55:13.747Z,92.30
2019-05-16T08:57:42.510Z,91.90
2019-05-16T09:00:15.094Z,89.60
2019-05-16T09:02:43.604Z,90.70
2019-05-16T09:05:13.679Z,92.30
2019-05-16T09:07:42.560Z,92.10
2019-05-16T09:10:11.000Z,92.60
2019-05-16T09:10:45.692Z,90.10
2019-05-16T09:12:41.708Z,84.00
2019-05-16T09:15:10.718Z,88.20
2019-05-16T09:17:39.252Z,88.20
2019-05-16T09:20:08.033Z,88.80
2019-05-16T09:22:37.756Z,86.30
2019-05-16T09:25:08.157Z,81.80
2019-05-16T09:27:38.084Z,79.50
2019-05-16T09:30:08.416Z,81.90
2019-05-16T09:32:37.181Z,82.00
2019-05-16T09:35:08.137Z,81.80
2019-05-16T09:37:37.684Z,83.60
2019-05-16T09:40:08.471Z,82.10
2019-05-16T09:42:37.325Z,79.20
2019-05-16T09:45:07.722Z,80.20
2019-05-16T09:47:38.944Z,74.70
2019-05-16T09:50:09.277Z,79.60
2019-05-16T09:52:37.946Z,78.60
2019-05-16T09:55:08.535Z,79.00
2019-05-16T09:57:37.812Z,76.20
2019-05-16T10:00:09.704Z,76.60
2019-05-16T10:02:38.164Z,84.40
2019-05-16T10:05:13.142Z,79.30
2019-05-16T10:07:38.861Z,79.50
2019-05-16T10:10:08.084Z,77.80
2019-05-16T10:12:37.130Z,75.70
2019-05-16T10:15:07.550Z,77.80
2019-05-16T10:17:37.002Z,79.90
2019-05-16T10:20:07.936Z,80.10
2019-05-16T10:22:37.332Z,77.50
2019-05-16T10:25:07.178Z,77.40
2019-05-16T10:27:36.864Z,79.30
2019-05-16T10:30:08.430Z,78.30
2019-05-16T10:32:39.799Z,78.50
2019-05-16T10:35:08.748Z,78.00
2019-05-16T10:37:37.623Z,79.00
2019-05-16T10:40:07.401Z,78.90
2019-05-16T10:42:37.999Z,80.90
2019-05-16T10:45:08.588Z,77.50
2019-05-16T10:47:37.399Z,79.10
2019-05-16T10:50:07.483Z,76.90
2019-05-16T10:52:36.830Z,75.90
2019-05-16T10:55:08.268Z,71.00
2019-05-16T10:57:37.755Z,65.80
2019-05-16T11:00:17.977Z,68.80
2019-05-16T11:02:38.557Z,69.10
2019-05-16T11:05:22.486Z,67.30
2019-05-16T11:07:37.686Z,70.70
2019-05-16T11:10:07.818Z,71.40
2019-05-16T11:12:47.757Z,70.60
2019-05-16T11:15:11.277Z,69.70
2019-05-16T11:17:39.043Z,68.40
2019-05-16T11:20:08.459Z,69.00
2019-05-16T11:22:37.297Z,71.40
2019-05-16T11:25:21.279Z,73.70
2019-05-16T11:27:37.620Z,71.60
2019-05-16T11:30:08.252Z,72.10
2019-05-16T11:32:37.464Z,75.80
2019-05-16T11:35:07.937Z,76.20
2019-05-16T11:37:37.735Z,75.10
2019-05-16T11:40:08.408Z,74.20
2019-05-16T11:42:37.892Z,73.70
2019-05-16T11:45:09.785Z,73.70
2019-05-16T11:47:38.427Z,72.40
2019-05-16T11:50:08.434Z,76.50
2019-05-16T11:52:40.431Z,73.90
2019-05-16T11:55:08.392Z,69.50
2019-05-16T11:57:37.897Z,72.40
2019-05-16T12:00:09.732Z,68.90
2019-05-16T12:02:42.494Z,72.90
2019-05-16T12:05:08.792Z,74.90
2019-05-16T12:07:44.066Z,81.80
2019-05-16T12:10:08.153Z,82.80
2019-05-16T12:12:37.114Z,78.60
2019-05-16T12:15:08.493Z,76.90
2019-05-16T12:17:37.055Z,79.10
2019-05-16T12:20:08.125Z,78.90
2019-05-16T12:22:37.647Z,82.40
2019-05-16T12:25:08.171Z,83.20
2019-05-16T12:27:42.246Z,85.80
2019-05-16T12:30:13.785Z,87.70
2019-05-16T12:32:39.299Z,88.50
2019-05-16T12:35:08.175Z,90.40
2019-05-16T12:37:37.350Z,90.80
2019-05-16T12:40:10.053Z,90.40
2019-05-16T12:42:38.576Z,90.70
2019-05-16T12:45:08.274Z,90.70
2019-05-16T12:47:37.689Z,92.30
2019-05-16T12:50:11.866Z,91.60
2019-05-16T12:52:40.575Z,92.60
2019-05-16T12:55:09.899Z,92.50
2019-05-16T12:57:38.673Z,92.20
2019-05-16T13:00:15.123Z,92.00
2019-05-16T13:02:39.335Z,91.70
2019-05-16T13:05:08.240Z,91.50
2019-05-16T13:07:37.754Z,93.30
2019-05-16T13:10:07.242Z,92.30
2019-05-16T13:12:37.844Z,93.50
2019-05-16T13:15:07.835Z,93.80
2019-05-16T13:17:37.203Z,94.40
2019-05-16T13:20:07.887Z,94.60
2019-05-16T13:22:38.364Z,95.60
2019-05-16T13:25:08.046Z,95.10
2019-05-16T13:27:37.422Z,95.70
2019-05-16T13:30:11.205Z,96.00
2019-05-16T13:32:39.793Z,97.00
2019-05-16T13:35:08.410Z,97.70
2019-05-16T13:37:37.109Z,97.30
2019-05-16T13:40:08.014Z,98.60
2019-05-16T13:42:37.171Z,98.80
2019-05-16T13:45:09.612Z,98.70
2019-05-16T13:47:38.220Z,99.90
2019-05-16T13:50:11.996Z,99.30
2019-05-16T13:52:38.789Z,99.20
2019-05-16T13:55:09.172Z,99.90
2019-05-16T13:57:37.800Z,99.90
2019-05-16T14:00:08.483Z,99.90
2019-05-16T14:02:37.902Z,99.90
2019-05-16T14:05:08.223Z,99.90
2019-05-16T14:07:37.734Z,99.90
2019-05-16T14:10:08.334Z,99.90
2019-05-16T14:12:36.998Z,99.90
2019-05-16T14:15:08.341Z,99.90
2019-05-16T14:17:37.434Z,99.90
2019-05-16T14:20:14.592Z,99.90
2019-05-16T14:22:39.662Z,99.90
2019-05-16T14:25:08.560Z,99.90
2019-05-16T14:27:38.319Z,99.90
2019-05-16T14:30:10.970Z,99.90
2019-05-16T14:32:42.975Z,99.90
2019-05-16T14:35:09.762Z,99.90
2019-05-16T14:37:38.433Z,99.90
2019-05-16T14:40:08.124Z,99.90
2019-05-16T14:42:38.522Z,99.90
2019-05-16T14:45:12.959Z,99.90
2019-05-16T14:47:40.019Z,99.90
2019-05-16T14:50:12.839Z,99.90
2019-05-16T14:52:39.370Z,99.90
2019-05-16T14:55:08.240Z,99.90
2019-05-16T14:57:37.112Z,99.90
2019-05-16T15:00:09.695Z,99.90
2019-05-16T15:02:38.834Z,99.90
2019-05-16T15:05:08.247Z,99.90
2019-05-16T15:07:37.530Z,99.90
2019-05-16T15:10:09.981Z,99.90
2019-05-16T15:12:38.512Z,99.90
2019-05-16T15:15:19.613Z,99.90
2019-05-16T15:17:38.424Z,99.90
2019-05-16T15:20:08.814Z,99.90
2019-05-16T15:22:38.385Z,99.90
2019-05-16T15:25:08.643Z,99.90
2019-05-16T15:27:37.455Z,99.90
2019-05-16T15:30:08.659Z,99.90
2019-05-16T15:32:38.586Z,99.90
2019-05-16T15:35:07.817Z,99.90
2019-05-16T15:37:37.203Z,99.90
2019-05-16T15:40:07.901Z,99.90
2019-05-16T15:42:37.290Z,99.90
2019-05-16T15:45:08.535Z,99.90
2019-05-16T15:47:37.634Z,99.90
2019-05-16T15:50:08.933Z,99.90
2019-05-16T15:52:38.629Z,99.90
2019-05-16T15:55:10.853Z,99.90
2019-05-16T15:57:39.368Z,99.90
2019-05-16T16:00:10.634Z,99.90
2019-05-16T16:02:39.551Z,99.90
2019-05-16T16:05:08.649Z,99.90
2019-05-16T16:07:37.957Z,99.90
2019-05-16T16:10:08.079Z,99.90
2019-05-16T16:12:37.709Z,99.90
2019-05-16T16:15:08.145Z,99.90
2019-05-16T16:17:38.046Z,99.90
2019-05-16T16:20:10.390Z,99.90
2019-05-16T16:22:38.026Z,99.90
2019-05-16T16:25:07.843Z,99.90
2019-05-16T16:27:36.363Z,99.90
2019-05-16T16:30:08.034Z,99.90
2019-05-16T16:32:38.044Z,99.90
2019-05-16T16:35:07.883Z,99.90
2019-05-16T16:37:37.790Z,99.90
2019-05-16T16:40:10.991Z,99.90
2019-05-16T16:42:37.846Z,99.90
2019-05-16T16:45:07.837Z,99.90
2019-05-16T16:47:37.848Z,99.90
2019-05-16T16:50:08.169Z,99.90
2019-05-16T16:52:37.998Z,99.90
2019-05-16T16:55:10.091Z,99.90
2019-05-16T16:57:38.776Z,99.90
2019-05-16T17:00:09.247Z,99.90
2019-05-16T17:02:37.912Z,99.90
2019-05-16T17:05:12.020Z,99.90
2019-05-16T17:07:37.655Z,99.90
2019-05-16T17:10:08.068Z,99.90
2019-05-16T17:12:41.741Z,99.90
2019-05-16T17:15:08.760Z,99.90
2019-05-16T17:17:37.724Z,99.90
2019-05-16T17:20:08.865Z,99.90
2019-05-16T17:22:38.008Z,99.90
2019-05-16T17:25:09.994Z,99.90
2019-05-16T17:27:38.593Z,99.90
2019-05-16T17:30:17.009Z,99.90
2019-05-16T17:32:45.778Z,99.90
2019-05-16T17:35:18.632Z,99.90
2019-05-16T17:37:47.696Z,99.90
2019-05-16T17:40:17.756Z,99.90
2019-05-16T17:42:47.633Z,99.90
2019-05-16T17:45:18.420Z,99.90
2019-05-16T17:47:47.090Z,99.90
2019-05-16T17:50:17.404Z,99.90
2019-05-16T17:52:47.610Z,99.90
2019-05-16T17:55:17.619Z,99.90
2019-05-16T17:57:46.545Z,99.90
2019-05-16T18:00:25.110Z,99.90
2019-05-16T18:02:47.232Z,99.90
2019-05-16T18:05:17.109Z,99.90
2019-05-16T18:07:47.553Z,99.90
2019-05-16T18:10:19.325Z,99.90
2019-05-16T18:12:48.184Z,99.90
2019-05-16T18:15:19.757Z,99.90
2019-05-16T18:17:48.281Z,99.90
2019-05-16T18:20:17.280Z,99.90
2019-05-16T18:22:47.196Z,99.90
2019-05-16T18:25:17.083Z,99.90
2019-05-16T18:27:45.639Z,99.90
2019-05-16T18:30:16.775Z,99.90
2019-05-16T18:32:45.171Z,99.90
2019-05-16T18:35:16.542Z,99.90
2019-05-16T18:37:46.340Z,99.90
2019-05-16T18:40:16.687Z,99.90
2019-05-16T18:42:47.654Z,99.90
2019-05-16T18:45:16.833Z,99.90
2019-05-16T18:47:46.989Z,99.90
2019-05-16T18:50:18.139Z,99.90
2019-05-16T18:52:47.078Z,99.90
2019-05-16T18:55:16.867Z,99.90
2019-05-16T18:57:47.303Z,99.90
2019-05-16T19:00:17.757Z,99.90
2019-05-16T19:02:47.852Z,99.90
2019-05-16T19:05:17.299Z,99.90
2019-05-16T19:07:47.583Z,99.90
2019-05-16T19:10:17.762Z,99.90
2019-05-16T19:12:47.715Z,99.90
2019-05-16T19:15:17.970Z,99.90
2019-05-16T19:17:46.552Z,99.90
2019-05-16T19:20:17.157Z,99.90
2019-05-16T19:22:45.959Z,99.90
2019-05-16T19:25:15.031Z,99.90
2019-05-16T19:27:46.291Z,99.90
2019-05-16T19:30:16.636Z,99.90
2019-05-16T19:32:46.909Z,99.90
2019-05-16T19:35:16.522Z,99.90
2019-05-16T19:37:47.088Z,99.90
2019-05-16T19:40:17.144Z,99.90
2019-05-16T19:42:47.151Z,99.90
2019-05-16T19:45:17.037Z,99.90
2019-05-16T19:47:46.950Z,99.90
2019-05-16T19:50:16.426Z,99.90
2019-05-16T19:52:47.023Z,99.90
2019-05-16T19:55:15.280Z,99.90
2019-05-16T19:57:43.724Z,99.90
2019-05-16T20:00:12.705Z,99.90
2019-05-16T20:02:41.235Z,99.90
2019-05-16T20:05:09.818Z,99.90
2019-05-16T20:07:38.353Z,99.90
2019-05-16T20:10:09.585Z,99.90
2019-05-16T20:12:38.435Z,99.90
2019-05-16T20:15:11.827Z,99.90
2019-05-16T20:17:50.886Z,99.90
2019-05-16T20:20:11.420Z,99.90
2019-05-16T20:22:39.890Z,99.90
2019-05-16T20:25:08.847Z,99.90
2019-05-16T20:27:37.350Z,99.90
2019-05-16T20:30:09.683Z,99.90
2019-05-16T20:32:38.203Z,99.90
2019-05-16T20:35:09.973Z,99.90
2019-05-16T20:37:38.424Z,99.90
2019-05-16T20:40:09.889Z,99.90
2019-05-16T20:42:38.667Z,99.90
2019-05-16T20:45:11.251Z,99.90
2019-05-16T20:47:39.783Z,99.90
2019-05-16T20:50:09.119Z,99.90
2019-05-16T20:52:38.029Z,99.90
2019-05-16T20:55:07.786Z,99.90
2019-05-16T20:57:37.618Z,99.90
2019-05-16T21:00:11.575Z,99.90
2019-05-16T21:02:40.091Z,99.90
2019-05-16T21:05:09.199Z,99.90
2019-05-16T21:07:37.784Z,99.90
2019-05-16T21:10:08.116Z,99.90
2019-05-16T21:12:40.074Z,99.90
2019-05-16T21:15:08.357Z,99.90
2019-05-16T21:17:36.958Z,99.90
2019-05-16T21:20:07.743Z,99.90
2019-05-16T21:22:37.034Z,99.90
2019-05-16T21:25:06.244Z,99.90
2019-05-16T21:27:37.470Z,99.90
2019-05-16T21:30:07.485Z,99.90
2019-05-16T21:32:36.707Z,99.90
2019-05-16T21:35:07.406Z,99.90
2019-05-16T21:37:37.361Z,99.90
2019-05-16T21:40:09.583Z,99.90
2019-05-16T21:42:38.027Z,99.90
2019-05-16T21:45:08.027Z,99.90
2019-05-16T21:47:36.990Z,99.90
2019-05-16T21:50:08.599Z,99.90
2019-05-16T21:52:37.078Z,99.90
2019-05-16T21:55:07.599Z,99.90
2019-05-16T21:57:37.787Z,99.90
2019-05-16T22:00:11.239Z,99.90
2019-05-16T22:02:39.843Z,99.90
2019-05-16T22:05:08.515Z,99.90
2019-05-16T22:07:36.975Z,99.90
2019-05-16T22:10:07.480Z,99.90
2019-05-16T22:12:38.220Z,99.90
2019-05-16T22:15:06.782Z,99.90
2019-05-16T22:17:36.607Z,99.90
2019-05-16T22:20:08.752Z,99.90
2019-05-16T22:22:38.156Z,99.90
2019-05-16T22:25:07.844Z,99.90
2019-05-16T22:27:36.595Z,99.90
2019-05-16T22:30:16.349Z,99.90
2019-05-16T22:32:44.359Z,99.90
2019-05-16T22:35:13.556Z,99.90
2019-05-16T22:37:52.065Z,99.90
2019-05-16T22:40:12.514Z,99.90
2019-05-16T22:42:40.955Z,99.90
2019-05-16T22:45:11.191Z,99.90
2019-05-16T22:47:39.657Z,99.90
2019-05-16T22:50:09.321Z,99.90
2019-05-16T22:52:37.847Z,99.90
2019-05-16T22:55:07.400Z,99.90
2019-05-16T22:57:36.059Z,99.90
2019-05-16T23:00:10.436Z,99.90
2019-05-16T23:02:39.043Z,99.90
2019-05-16T23:05:07.693Z,99.90
2019-05-16T23:07:36.753Z,99.90
2019-05-16T23:10:07.346Z,99.90
2019-05-16T23:12:37.121Z,99.90
2019-05-16T23:15:06.847Z,99.90
2019-05-16T23:17:37.567Z,99.90
2019-05-16T23:20:07.333Z,99.90
2019-05-16T23:22:36.695Z,99.90
2019-05-16T23:25:06.689Z,99.90
2019-05-16T23:27:36.771Z,99.90
2019-05-16T23:30:09.603Z,99.90
2019-05-16T23:32:38.062Z,99.90
2019-05-16T23:35:08.151Z,99.90
2019-05-16T23:37:37.144Z,99.90
2019-05-16T23:40:06.838Z,99.90
2019-05-16T23:42:37.093Z,99.90
2019-05-16T23:45:09.488Z,99.90
2019-05-16T23:47:38.075Z,99.90
2019-05-16T23:50:08.780Z,99.90
2019-05-16T23:52:37.378Z,99.90
2019-05-16T23:55:08.825Z,99.90
2019-05-16T23:57:37.712Z,99.90
